ADDS METAR Data INFO
IDs: Format: Raw Decoded Include TAF

Data at: 2307 UTC 16 Jan 2018

KCMH 162251Z 22008KT 10SM OVC023 M12/M17 A3048 RMK AO2 SLP339 T11221172
KCMH 162151Z 27008KT 9SM BKN024 BKN200 M12/M17 A3047 RMK AO2 SLP334 T11221172
KCMH 162126Z 26006KT 9SM BKN025 BKN200 M12/M17 A3046 RMK AO2 T11221172
KCMH 162051Z 26005KT 9SM FEW065 SCT200 M12/M17 A3045 RMK AO2 SLP328 T11221172 55000
KCMH 161951Z 23006KT 9SM SCT100 SCT200 M12/M17 A3044 RMK AO2 SLP324 T11221172
KCMH 161851Z 24007KT 10SM SCT100 SCT200 M12/M17 A3044 RMK AO2 SLP322 T11221167
KCMH 161751Z 28009KT 9SM FEW030 SCT100 SCT200 M13/M18 A3045 RMK AO2 SLP326 4/005 933003 T11281178 11117 21144 58008
KCMH 161651Z 28007KT 10SM FEW027 BKN080 BKN110 OVC200 M13/M18 A3048 RMK AO2 SLP335 T11331178
KCMH 161551Z 29008KT 9SM FEW024 BKN080 BKN110 OVC200 M14/M18 A3049 RMK AO2 SLP339 T11391178
KCMH 161451Z 29011KT 8SM SCT020 BKN080 OVC100 M14/M17 A3048 RMK AO2 SLP334 T11391172 53013
KCMH 161351Z 27011KT 6SM HZ OVC018 M12/M16 A3047 RMK AO2 SLP330 T11171156
KCMH 161251Z 29006KT 9SM OVC019 M12/M16 A3044 RMK AO2 SLP321 T11221156
KCMH 161225Z 29007KT 9SM BKN019 OVC080 M12/M16 A3044 RMK AO2 T11221161
KCMH 161151Z 28004KT 9SM FEW018 OVC085 M12/M16 A3044 RMK AO2 SLP320 60002 70027 4/005 T11171161 11028 21122 51014 $
KCMH 161051Z 30007KT 9SM OVC080 M12/M16 A3043 RMK AO2 SLP319 T11171156 $
KCMH 160951Z 30013KT 10SM BKN080 OVC095 M11/M15 A3040 RMK AO2 SNE04 SLP309 P0000 T11111150 $
KCMH 160851Z 30011KT 8SM -SN SCT041 OVC090 M09/M12 A3039 RMK AO2 SLP305 P0001 60002 T10941122 53028 $
KCMH 160836Z 29010KT 8SM -SN FEW012 BKN039 OVC050 M09/M12 A3038 RMK AO2 P0001 T10941117 $
KCMH 160826Z 29012KT 6SM -SN BR FEW012 OVC026 M09/M11 A3039 RMK AO2 P0001 T10941111 $
KCMH 160808Z 30011KT 1 3/4SM -SN BR OVC018 M09/M11 A3038 RMK AO2 P0001 T10891106 $
KCMH 160751Z 29009KT 1 1/4SM -SN BR BKN016 OVC025 M08/M11 A3037 RMK AO2 SLP295 WSHFT 0654 FROPA P0000 T10831106 $
KCMH 160711Z 29017KT 1 3/4SM -SN BR FEW013 OVC021 M08/M09 A3035 RMK AO2 WSHFT 0654 FROPA P0000 T10781094 $
KCMH 160651Z 18004KT 1SM R28L/5000VP6000FT -SN BR BKN013 OVC019 M04/M05 A3033 RMK AO2 SLP281 P0001 T10391050 $
KCMH 160629Z 19005KT 1 3/4SM -SN BR BKN013 BKN020 OVC025 M03/M04 A3031 RMK AO2 P0001 T10331044 $
KCMH 160615Z 20004KT 2SM -SN BR FEW009 BKN017 OVC026 M03/M04 A3031 RMK AO2 P0000 T10331039 $
KCMH 160606Z 17003KT 1 3/4SM -SN BR FEW011 SCT017 OVC026 M03/M04 A3031 RMK AO2 P0000 T10331039 $
KCMH 160551Z 19003KT 2SM -SN BR FEW006 OVC027 M03/M04 A3031 RMK AO2 SLP275 P0001 60003 4/005 T10331039 11022 21033 58001 $
KCMH 160524Z 21003KT 2 1/2SM -SN BR FEW009 OVC021 M03/M04 A3031 RMK AO2 P0001 T10331039 $
KCMH 160502Z 19003KT 2 1/2SM -SN BR SCT007 OVC035 M03/M04 A3031 RMK AO2 P0000 T10331039 $
KCMH 160451Z 20004KT 2SM -SN BR BKN007 OVC015 M03/M04 A3032 RMK AO2 SLP277 P0001 T10331039 410221106 $
KCMH 160442Z 00000KT 2SM -SN BR BKN007 OVC013 M03/M03 A3032 RMK AO2 P0001 T10331033 $
KCMH 160401Z 29004KT 2SM -SN BR FEW008 OVC020 M03/M04 A3032 RMK AO2 P0000 T10281039 $
KCMH 160351Z 27004KT 2SM -SN BR OVC023 M03/M04 A3032 RMK AO2 SNB0257 SLP279 P0001 T10281039 $
KCMH 160310Z 27006KT 2SM -SN BR BKN024 OVC037 M03/M04 A3030 RMK AO2 SNB0257 P0000 T10281044 $
KCMH 160302Z 27008KT 7SM -SN SCT018 OVC035 M02/M05 A3031 RMK AO2 SNB0257 P0000 T10221050 $
KCMH 160251Z 27008KT 10SM BKN017 OVC038 M02/M05 A3031 RMK AO2 SLP276 60000 T10221050 53009 $
KCMH 160229Z 26009KT 10SM OVC015 M02/M05 A3031 RMK AO2 T10221050 $
KCMH 160151Z 23008KT 10SM OVC014 M02/M04 A3029 RMK AO2 SLP270 T10221044 $
KCMH 160143Z 23006KT 10SM OVC014 M02/M04 A3029 RMK AO2 T10221044 $
KCMH 160051Z 23007KT 10SM FEW011 BKN026 OVC050 M03/M04 A3029 RMK AO2 SNE35 SLP270 P0000 T10281039 $
KCMH 160036Z 23005KT 8SM SCT010 BKN019 OVC050 M03/M04 A3029 RMK AO2 SNE35 P0000 T10281039 $
KCMH 160021Z 22005KT 7SM -SN BKN011 BKN017 OVC055 M03/M04 A3029 RMK AO2 P0000 T10281039 $
KCMH 160002Z 21005KT 3SM -SN BR FEW008 OVC016 M03/M04 A3028 RMK AO2 P0000 T10281039 $
KCMH 152351Z 21004KT 1/4SM R28L/P6000FT -SN BR FEW007 OVC015 M03/M03 A3028 RMK AO2 SFC VIS 1 1/4 SLP268 SNINCR 1/4 4/004 P0005 60015 T10281033 11028 21050 50001 $
KCMH 152340Z 19004KT 1/4SM R28L/5500VP6000FT -SN BR VV010 M03/M03 A3028 RMK AO2 SFC VIS 3/4 P0004 T10281033 $
KCMH 152336Z 18003KT 1/2SM R28L/5500VP6000FT -SN BR VV009 M03/M03 A3029 RMK AO2 SFC VIS 3/4 P0004 T10281033 $
KCMH 152251Z 19005KT 1/2SM R28L/P6000FT -SN BR VV011 M03/M04 A3028 RMK AO2 SFC VIS 3/4 SLP267 P0003 T10281039 $
KCMH 152151Z 18005KT 3/4SM R28L/P6000FT -SN BR OVC023 M03/M04 A3026 RMK AO2 SFC VIS 1 SLP259 P0001 T10281044 $
KCMH 152051Z 16008KT 3/4SM R28L/P6000FT -SN BR FEW010 SCT015 OVC023 M03/M04 A3023 RMK AO2 SFC VIS 1 SLP250 P0001 60006 T10281044 55015 $
KCMH 152001Z 15011KT 3/4SM R28L/P6000FT -SN BR FEW010 OVC020 M03/M05 A3022 RMK AO2 P0000 T10331050 $
KCMH 151951Z 15010KT 1SM R28L/P6000FT -SN BR SCT010 OVC020 M03/M05 A3023 RMK AO2 SLP249 P0002 T10331050 $
KCMH 151935Z 15010KT 1SM R28L/P6000FT -SN BR FEW009 BKN020 OVC028 M04/M05 A3023 RMK AO2 SFC VIS 1 1/2 P0001 T10391050 $
KCMH 151913Z 15007KT 3/4SM R28L/4500VP6000FT -SN BR SCT012 OVC017 M04/M06 A3023 RMK AO2 TWR VIS 1 P0001 T10391056 $
KCMH 151851Z 16009KT 1/2SM R28L/4000V5000FT SN FZFG VV014 M04/M06 A3024 RMK AO2 TWR VIS 1 SLP253 P0003 T10441061 $
KCMH 151841Z 17007KT 1/2SM R28L/4000VP6000FT SN FZFG VV014 M04/M06 A3025 RMK AO2 TWR VIS 1 P0002 T10441056 $
KCMH 151822Z 16007KT 3/4SM R28L/5500VP6000FT -SN BR VV016 M04/M06 A3025 RMK AO2 TWR VIS 1 P0001 T10441061 $
KCMH 151809Z 15007KT 1SM R28L/3000VP6000FT -SN BR VV015 M05/M07 A3026 RMK AO2 P0001 T10501067 $
KCMH 151751Z 16004KT 1/2SM R28L/4500V6000FT SN FZFG VV015 M05/M07 A3028 RMK AO2 TWR VIS 3/4 SLP265 P0002 60007 933002 4/003 T10501067 11050 21094 58021 $
KCMH 151742Z 14006KT 3/4SM R28L/5000VP6000FT -SN BR BKN018 OVC032 M06/M07 A3028 RMK AO2 SFC VIS 1 1/4 P0001 T10561072 $
KCMH 151651Z 15007KT 1 3/4SM R28L/6000VP6000FT -SN BR BKN021 OVC035 M06/M08 A3032 RMK AO2 SNB1559 SLP280 P0002 T10611083 $
KCMH 151630Z 15007KT 2SM -SN BKN021 OVC035 M06/M09 A3032 RMK AO2 SNB1559 P0001 T10611089 $
KCMH 151618Z 16008KT 1SM R28L/5000VP6000FT -SN BKN018 BKN027 OVC033 M06/M09 A3032 RMK AO2 SNB1559 P0001 T10611089 $
KCMH 151605Z 16007KT 1 3/4SM -SN SCT023 OVC033 M06/M09 A3033 RMK AO2 SNB1559 P0000 T10611089 $
KCMH 151551Z 16007KT 7SM BKN033 OVC055 M07/M09 A3033 RMK AO2 SNE23 SLP285 P0000 T10671094 $
KCMH 151451Z 15008KT 3SM -SN BKN038 BKN065 OVC080 M08/M11 A3034 RMK AO2 SFC VIS 3 VIS 2 1/2 NW SLP289 P0000 60003 T10781106 58007 $
KCMH 151429Z 14008KT 3SM -SN BR BKN043 BKN065 OVC095 M08/M11 A3034 RMK AO2 SFC VIS 5 P0000 T10831106 $
KCMH 151351Z 14008KT 2 1/2SM -SN BR OVC029 M09/M11 A3034 RMK AO2 TWR VIS 3 SLP290 P0001 T10891111 $
KCMH 151343Z 13009KT 2 1/2SM -SN BR OVC029 M09/M11 A3034 RMK AO2 TWR VIS 3 P0001 T10891111 $
KCMH 151340Z 14008KT 3SM -SN BR OVC030 M09/M11 A3034 RMK AO2 P0001 T10941111 $
KCMH 151316Z 14007KT 1 1/2SM -SN BR OVC029 M09/M11 A3036 RMK AO2 TWR VIS 3 P0000 T10941111 $
KCMH 151251Z 14006KT 3SM -SN BR OVC036 M09/M12 A3036 RMK AO2 SLP296 P0002 T10941117 $
KCMH 151227Z 13006KT 3SM -SN BR OVC030 M09/M12 A3036 RMK AO2 P0001 T10941117 $
KCMH 151151Z 14006KT 2SM -SN BR OVC024 M09/M12 A3036 RMK AO2 SLP296 P0002 60002 70002 4/003 T10941117 11094 21100 58012 $
KCMH 151112Z 13006KT 1 1/2SM -SN BR OVC018 M10/M12 A3036 RMK AO2 P0001 T11001122 $